createdAt,value
2023-05-14T00:09:27.550Z,7.90
2023-05-14T00:18:54.362Z,7.53
2023-05-14T00:57:44.606Z,6.77
2023-05-14T01:00:19.612Z,7.40
2023-05-14T02:49:00.898Z,12.13
2023-05-14T03:13:00.831Z,12.50
2023-05-14T06:18:13.387Z,9.47
2023-05-14T06:20:59.773Z,9.30
2023-05-14T06:26:30.232Z,8.73
2023-05-14T06:29:21.598Z,10.13
2023-05-14T06:31:51.568Z,7.63
2023-05-14T06:37:11.861Z,9.50
2023-05-14T06:39:50.274Z,8.20
2023-05-14T06:42:21.168Z,8.20
2023-05-14T06:44:50.393Z,7.97
2023-05-14T06:47:24.840Z,7.73
2023-05-14T06:52:45.571Z,8.27
2023-05-14T07:04:07.027Z,6.50
2023-05-14T07:07:36.215Z,6.83
2023-05-14T07:13:02.902Z,7.07
2023-05-14T07:45:34.020Z,5.50
2023-05-14T07:48:03.160Z,4.77
2023-05-14T07:50:32.104Z,5.97
2023-05-14T07:53:02.228Z,5.27
2023-05-14T07:55:31.003Z,5.40
2023-05-14T07:57:59.365Z,4.33
2023-05-14T08:00:28.576Z,3.40
2023-05-14T08:02:58.524Z,4.17
2023-05-14T08:05:26.982Z,3.60
2023-05-14T08:07:55.973Z,4.23
2023-05-14T08:10:24.599Z,3.90
2023-05-14T08:12:53.593Z,3.90
2023-05-14T08:15:22.039Z,3.80
2023-05-14T08:17:52.939Z,4.20
2023-05-14T08:20:25.530Z,4.20
2023-05-14T08:22:53.928Z,3.57
2023-05-14T08:25:23.668Z,3.70
2023-05-14T08:30:45.748Z,3.63
2023-05-14T08:36:39.546Z,3.60
2023-05-14T08:39:09.053Z,2.70
2023-05-14T08:41:38.425Z,2.70
2023-05-14T09:02:27.839Z,2.60
2023-05-14T09:04:58.943Z,2.73
2023-05-14T09:07:43.791Z,2.90
2023-05-14T09:10:13.120Z,2.07
2023-05-14T09:15:42.893Z,2.80
2023-05-14T09:18:32.563Z,2.60
2023-05-14T09:21:04.242Z,2.43
2023-05-14T09:23:35.169Z,2.60
2023-05-14T09:26:11.485Z,2.43
2023-05-14T09:28:42.585Z,3.03
2023-05-14T09:58:20.974Z,2.63
2023-05-14T10:03:51.857Z,2.87
2023-05-14T10:06:27.233Z,3.10
2023-05-14T10:09:03.046Z,3.67
2023-05-14T10:14:43.363Z,3.60
2023-05-14T10:26:23.948Z,3.47
2023-05-14T10:29:06.644Z,3.33
2023-05-14T10:31:56.517Z,3.60
2023-05-14T10:43:11.554Z,3.33
2023-05-14T10:45:45.462Z,3.90
2023-05-14T10:48:17.810Z,4.10
2023-05-14T10:50:48.342Z,3.73
2023-05-14T10:53:16.620Z,4.03
2023-05-14T10:55:45.969Z,3.80
2023-05-14T10:58:14.160Z,4.23
2023-05-14T11:00:42.883Z,3.80
2023-05-14T11:03:13.506Z,3.43
2023-05-14T11:05:43.738Z,4.30
2023-05-14T11:08:13.771Z,3.90
2023-05-14T11:10:43.951Z,4.57
2023-05-14T11:13:13.359Z,3.87
2023-05-14T11:15:47.272Z,4.00
2023-05-14T11:18:15.788Z,3.77
2023-05-14T11:20:45.497Z,3.53
2023-05-14T11:23:18.541Z,4.60
2023-05-14T11:25:47.832Z,4.00
2023-05-14T11:28:16.194Z,3.80
2023-05-14T11:30:47.491Z,3.70
2023-05-14T11:33:16.279Z,3.63
2023-05-14T11:35:47.621Z,3.17
2023-05-14T11:38:30.964Z,3.77
2023-05-14T11:41:01.526Z,3.27
2023-05-14T11:44:09.259Z,3.83
2023-05-14T11:46:53.622Z,3.70
2023-05-14T12:04:14.272Z,3.43
2023-05-14T12:06:55.092Z,4.23
2023-05-14T12:13:00.989Z,3.50
2023-05-14T12:15:33.484Z,3.77
2023-05-14T12:24:04.664Z,3.13
2023-05-14T12:38:41.686Z,3.50
2023-05-14T12:41:11.447Z,3.80
2023-05-14T13:01:44.129Z,4.30
2023-05-14T13:04:15.313Z,4.70
2023-05-14T13:06:50.761Z,4.40
2023-05-14T13:09:23.734Z,4.60
2023-05-14T13:11:53.684Z,5.10
2023-05-14T13:14:36.219Z,4.50
2023-05-14T13:17:08.571Z,4.67
2023-05-14T13:19:36.755Z,4.93
2023-05-14T13:22:05.596Z,4.23
2023-05-14T13:24:34.244Z,4.23
2023-05-14T13:27:02.702Z,4.70
2023-05-14T13:29:37.536Z,5.67
2023-05-14T13:32:11.862Z,5.40
2023-05-14T13:34:40.402Z,4.30
2023-05-14T13:40:34.682Z,5.13
2023-05-14T13:43:03.656Z,5.30
2023-05-14T13:45:44.766Z,5.57
2023-05-14T13:48:26.524Z,5.40
2023-05-14T13:53:32.559Z,5.80
2023-05-14T13:56:01.900Z,6.37
2023-05-14T13:58:32.628Z,5.33
2023-05-14T14:01:02.508Z,5.50
2023-05-14T14:03:38.079Z,5.87
2023-05-14T14:09:54.497Z,5.77
2023-05-14T14:12:23.637Z,5.93
2023-05-14T14:14:53.316Z,5.63
2023-05-14T14:20:32.907Z,5.50
2023-05-14T14:23:01.593Z,5.60
2023-05-14T14:25:30.112Z,4.80
2023-05-14T14:27:59.016Z,5.77
2023-05-14T14:30:27.740Z,3.40
2023-05-14T14:32:57.163Z,4.17
2023-05-14T14:38:27.935Z,5.17
2023-05-14T14:40:57.065Z,5.23
2023-05-14T14:43:26.509Z,5.53
2023-05-14T14:45:54.681Z,4.73
2023-05-14T14:48:28.454Z,4.90
2023-05-14T14:51:01.985Z,5.17
2023-05-14T14:53:31.903Z,5.13
2023-05-14T14:56:01.481Z,5.20
2023-05-14T14:58:31.746Z,6.03
2023-05-14T15:01:00.987Z,5.63
2023-05-14T15:03:29.595Z,5.30
2023-05-14T15:06:00.066Z,5.10
2023-05-14T15:08:31.793Z,4.63
2023-05-14T15:11:00.685Z,4.37
2023-05-14T15:13:32.516Z,5.17
2023-05-14T15:16:27.492Z,4.93
2023-05-14T15:21:53.507Z,5.50
2023-05-14T15:24:26.280Z,4.60
2023-05-14T15:26:55.072Z,4.97
2023-05-14T15:29:23.729Z,4.47
2023-05-14T15:31:59.462Z,4.50
2023-05-14T15:34:28.214Z,4.87
2023-05-14T15:37:01.149Z,4.30
2023-05-14T15:39:33.732Z,5.07
2023-05-14T15:42:02.252Z,4.70
2023-05-14T15:44:32.825Z,3.50
2023-05-14T15:47:03.577Z,4.90
2023-05-14T15:49:31.790Z,4.80
2023-05-14T15:52:05.763Z,4.33
2023-05-14T15:54:35.822Z,4.30
2023-05-14T15:57:28.107Z,4.43
2023-05-14T15:59:56.946Z,4.60
2023-05-14T16:05:08.819Z,5.10
2023-05-14T16:07:39.860Z,4.60
2023-05-14T16:10:11.463Z,4.80
2023-05-14T16:12:39.847Z,4.87
2023-05-14T16:15:09.641Z,3.07
2023-05-14T16:17:44.333Z,4.47
2023-05-14T16:20:15.576Z,5.03
2023-05-14T16:22:49.198Z,4.80
2023-05-14T16:25:19.282Z,3.90
2023-05-14T16:30:31.435Z,4.43
2023-05-14T16:33:04.525Z,4.40
2023-05-14T16:35:32.720Z,3.93
2023-05-14T16:38:14.185Z,4.37
2023-05-14T16:40:45.669Z,4.10
2023-05-14T16:43:14.948Z,3.90
2023-05-14T16:45:43.826Z,3.27
2023-05-14T16:50:56.342Z,3.67
2023-05-14T16:53:26.201Z,4.60
2023-05-14T16:55:54.302Z,3.77
2023-05-14T16:58:26.739Z,4.50
2023-05-14T17:00:55.264Z,3.40
2023-05-14T17:03:26.194Z,3.97
2023-05-14T17:05:58.006Z,3.53
2023-05-14T17:08:32.704Z,4.27
2023-05-14T17:11:01.542Z,4.50
2023-05-14T17:13:29.974Z,3.80
2023-05-14T17:15:58.523Z,3.73
2023-05-14T17:18:27.634Z,3.70
2023-05-14T17:20:59.927Z,3.27
2023-05-14T17:26:50.852Z,3.33
2023-05-14T17:29:30.474Z,3.87
2023-05-14T17:32:11.820Z,3.80
2023-05-14T18:50:26.705Z,1.97
2023-05-14T19:01:26.018Z,2.13
2023-05-14T19:19:00.167Z,1.80
2023-05-14T19:21:32.033Z,1.73
2023-05-14T19:26:51.939Z,2.00
2023-05-14T19:29:20.481Z,1.70
2023-05-14T19:31:49.080Z,1.97
2023-05-14T19:34:18.245Z,1.97
2023-05-14T19:36:49.259Z,2.17
2023-05-14T19:39:18.624Z,1.83
2023-05-14T19:50:38.587Z,1.63
2023-05-14T19:53:11.408Z,2.13
2023-05-14T19:55:39.933Z,2.00
2023-05-14T19:58:08.488Z,2.10
2023-05-14T20:00:38.198Z,1.63
2023-05-14T20:03:06.461Z,2.27
2023-05-14T20:05:36.514Z,1.83
2023-05-14T20:08:07.818Z,1.80
2023-05-14T20:10:38.356Z,1.80
2023-05-14T20:13:06.834Z,1.90
2023-05-14T20:15:35.442Z,2.10
2023-05-14T20:18:04.134Z,1.83
2023-05-14T20:20:33.354Z,1.80
2023-05-14T20:23:02.061Z,1.90
2023-05-14T20:25:32.951Z,1.87
2023-05-14T20:28:03.467Z,2.10
2023-05-14T20:30:31.596Z,1.83
2023-05-14T20:33:00.865Z,1.80
2023-05-14T20:35:30.388Z,1.73
2023-05-14T20:37:58.946Z,1.77
2023-05-14T20:40:27.070Z,2.03
2023-05-14T20:42:55.630Z,2.10
2023-05-14T20:45:26.668Z,2.13
2023-05-14T20:47:55.847Z,2.17
2023-05-14T20:50:27.388Z,1.80
2023-05-14T20:52:56.688Z,2.17
2023-05-14T20:55:25.571Z,1.93
2023-05-14T20:57:54.746Z,2.50
2023-05-14T21:00:27.038Z,2.10
2023-05-14T21:02:55.802Z,2.43
2023-05-14T21:05:26.502Z,2.73
2023-05-14T21:08:00.911Z,3.50
2023-05-14T21:10:29.706Z,2.23
2023-05-14T21:12:58.358Z,2.33
2023-05-14T21:15:32.596Z,2.07
2023-05-14T21:18:04.267Z,4.03
2023-05-14T21:20:32.748Z,3.50
2023-05-14T21:23:01.500Z,2.20
2023-05-14T21:25:30.155Z,1.90
2023-05-14T21:27:59.177Z,2.40
2023-05-14T21:30:36.293Z,2.10
2023-05-14T21:33:05.386Z,2.27
2023-05-14T21:35:37.162Z,2.33
2023-05-14T21:38:06.332Z,2.50
2023-05-14T21:40:34.424Z,2.57
2023-05-14T21:43:06.554Z,1.93
2023-05-14T21:45:36.941Z,2.10
2023-05-14T21:48:05.542Z,1.80
2023-05-14T21:53:19.527Z,1.20
2023-05-14T21:55:47.806Z,0.97
2023-05-14T21:58:18.024Z,1.10
2023-05-14T22:00:48.131Z,1.37
2023-05-14T22:03:16.530Z,1.13
2023-05-14T22:05:44.850Z,1.40
2023-05-14T22:08:13.152Z,1.50
2023-05-14T22:10:41.672Z,1.20
2023-05-14T22:13:25.676Z,1.00
2023-05-14T22:16:09.185Z,0.80
2023-05-14T22:21:10.039Z,1.03
2023-05-14T22:29:53.780Z,1.13
2023-05-14T22:32:36.132Z,1.13
2023-05-14T22:35:04.993Z,1.10
2023-05-14T22:37:35.041Z,1.13
2023-05-14T22:40:06.658Z,8.37
2023-05-14T22:42:34.919Z,1.17
2023-05-14T22:45:04.850Z,1.33
2023-05-14T22:47:34.975Z,1.73
2023-05-14T22:50:03.031Z,1.83
2023-05-14T22:52:31.884Z,1.80
2023-05-14T22:55:00.984Z,1.63
2023-05-14T22:57:35.021Z,2.13
2023-05-14T23:00:05.008Z,1.47
2023-05-14T23:02:39.564Z,1.33
2023-05-14T23:07:57.932Z,1.60
2023-05-14T23:13:16.576Z,1.60
2023-05-14T23:15:46.293Z,1.40
2023-05-14T23:18:27.121Z,2.50
2023-05-14T23:20:55.586Z,1.50
2023-05-14T23:23:24.245Z,1.20
2023-05-14T23:25:53.235Z,1.40
2023-05-14T23:28:26.371Z,1.20
2023-05-14T23:30:56.124Z,1.30
2023-05-14T23:33:42.420Z,1.30
2023-05-14T23:39:23.102Z,1.00
2023-05-14T23:41:55.669Z,1.20
2023-05-14T23:44:40.842Z,1.17
2023-05-14T23:47:30.908Z,1.40
2023-05-14T23:50:03.124Z,1.30
2023-05-14T23:52:32.597Z,1.90
2023-05-14T23:55:01.887Z,1.40
2023-05-14T23:57:31.102Z,1.60
